createdAt,value
2023-01-28T00:00:52.287Z,101924.75
2023-01-28T00:03:19.308Z,101913.56
2023-01-28T00:05:45.999Z,101913.97
2023-01-28T00:08:13.520Z,101924.84
2023-01-28T00:10:41.810Z,101917.50
2023-01-28T00:13:08.517Z,101924.50
2023-01-28T00:15:35.262Z,101923.66
2023-01-28T00:18:02.004Z,101923.22
2023-01-28T00:20:28.535Z,101927.44
2023-01-28T00:22:55.159Z,101933.97
2023-01-28T00:25:21.707Z,101934.84
2023-01-28T00:27:50.000Z,101944.09
2023-01-28T00:30:17.563Z,101935.22
2023-01-28T00:32:44.677Z,101931.59
2023-01-28T00:35:13.414Z,101925.19
2023-01-28T00:37:41.419Z,101925.06
2023-01-28T00:40:09.926Z,101926.13
2023-01-28T00:42:37.497Z,101924.22
2023-01-28T00:45:04.709Z,101924.00
2023-01-28T00:47:31.316Z,101923.81
2023-01-28T00:49:57.987Z,101925.38
2023-01-28T00:52:24.664Z,101927.25
2023-01-28T00:54:51.222Z,101933.56
2023-01-28T00:57:19.447Z,101944.47
2023-01-28T00:59:46.490Z,101927.22
2023-01-28T01:02:13.171Z,101933.28
2023-01-28T01:04:40.665Z,101932.81
2023-01-28T01:07:07.419Z,101923.19
2023-01-28T01:09:34.129Z,101932.94
2023-01-28T01:12:01.071Z,101927.53
2023-01-28T01:14:28.465Z,101929.34
2023-01-28T01:16:55.144Z,101927.44
2023-01-28T01:19:21.841Z,101929.22
2023-01-28T01:21:50.333Z,101922.97
2023-01-28T01:24:17.137Z,101934.56
2023-01-28T01:26:43.771Z,101932.34
2023-01-28T01:29:10.299Z,101932.81
2023-01-28T01:31:36.884Z,101945.91
2023-01-28T01:34:03.552Z,101944.06
2023-01-28T01:36:31.106Z,101948.28
2023-01-28T01:38:57.941Z,101946.59
2023-01-28T01:41:28.914Z,101949.72
2023-01-28T01:44:01.197Z,101944.06
2023-01-28T01:46:43.696Z,101950.09
2023-01-28T01:49:16.323Z,101949.75
2023-01-28T01:51:45.619Z,101950.06
2023-01-28T01:54:13.307Z,101941.59
2023-01-28T01:56:42.939Z,101949.22
2023-01-28T01:59:12.846Z,101945.25
2023-01-28T02:01:39.780Z,101950.44
2023-01-28T02:04:12.687Z,101954.94
2023-01-28T02:06:40.032Z,101947.47
2023-01-28T02:09:22.489Z,101957.50
2023-01-28T02:11:50.729Z,101946.28
2023-01-28T02:14:30.656Z,101958.03
2023-01-28T02:16:58.897Z,101956.41
2023-01-28T02:19:32.212Z,101959.28
2023-01-28T02:22:40.173Z,101955.16
2023-01-28T02:25:22.032Z,101963.16
2023-01-28T02:28:22.407Z,101948.31
2023-01-28T02:31:01.087Z,101952.13
2023-01-28T02:33:39.049Z,101960.56
2023-01-28T02:36:35.068Z,101955.47
2023-01-28T02:39:13.371Z,101962.38
2023-01-28T02:41:57.631Z,101953.47
2023-01-28T02:44:24.291Z,101955.38
2023-01-28T02:47:11.747Z,101963.53
2023-01-28T02:49:51.924Z,101952.97
2023-01-28T02:52:46.643Z,101957.28
2023-01-28T02:55:21.471Z,101951.78
2023-01-28T02:57:51.201Z,101942.97
2023-01-28T03:00:39.725Z,101946.03
2023-01-28T03:03:33.205Z,101949.25
2023-01-28T03:06:04.115Z,101948.75
2023-01-28T03:08:58.048Z,101942.25
2023-01-28T03:11:45.729Z,101937.94
2023-01-28T03:14:31.126Z,101947.41
2023-01-28T03:17:19.470Z,101950.06
2023-01-28T03:20:05.380Z,101932.94
2023-01-28T03:22:55.162Z,101932.44
2023-01-28T03:25:44.075Z,101937.19
2023-01-28T03:28:34.864Z,101934.00
2023-01-28T03:31:28.234Z,101941.91
2023-01-28T03:34:18.078Z,101943.06
2023-01-28T03:36:55.723Z,101952.78
2023-01-28T03:39:37.982Z,101947.22
2023-01-28T03:42:11.848Z,101957.22
2023-01-28T03:44:54.728Z,101958.84
2023-01-28T03:47:30.216Z,101957.16
2023-01-28T03:49:59.599Z,101962.81
2023-01-28T03:52:31.959Z,101964.06
2023-01-28T03:55:17.480Z,101967.00
2023-01-28T03:57:45.349Z,101956.41
2023-01-28T04:00:13.786Z,101964.84
2023-01-28T04:02:43.194Z,101966.69
2023-01-28T04:05:15.968Z,101958.88
2023-01-28T04:07:46.898Z,101969.28
2023-01-28T04:10:27.462Z,101960.16
2023-01-28T04:13:19.036Z,101968.34
2023-01-28T04:15:46.485Z,101964.59
2023-01-28T04:18:15.030Z,101973.38
2023-01-28T04:20:42.053Z,101976.41
2023-01-28T04:23:08.843Z,101980.78
2023-01-28T04:25:35.366Z,101988.69
2023-01-28T04:28:05.565Z,101983.03
2023-01-28T04:30:32.193Z,101990.88
2023-01-28T04:33:05.732Z,101987.31
2023-01-28T04:35:47.141Z,101981.53
2023-01-28T04:38:22.491Z,101981.31
2023-01-28T04:41:20.595Z,101983.34
2023-01-28T04:43:49.158Z,101983.84
2023-01-28T04:46:34.389Z,101976.09
2023-01-28T04:49:04.111Z,101979.22
2023-01-28T04:51:50.973Z,101987.69
2023-01-28T04:54:31.926Z,101976.97
2023-01-28T04:57:01.503Z,101976.47
2023-01-28T04:59:29.227Z,101968.63
2023-01-28T05:01:56.126Z,101973.59
2023-01-28T05:04:22.808Z,101966.59
2023-01-28T05:06:49.522Z,101971.38
2023-01-28T05:09:19.678Z,101975.34
2023-01-28T05:11:46.510Z,101968.13
2023-01-28T05:14:14.369Z,101965.28
2023-01-28T05:16:47.165Z,101969.34
2023-01-28T05:19:14.580Z,101973.50
2023-01-28T05:21:43.130Z,101972.91
2023-01-28T05:24:18.606Z,101980.66
2023-01-28T05:26:45.281Z,101986.97
2023-01-28T05:29:12.119Z,101988.78
2023-01-28T05:31:39.459Z,101976.63
2023-01-28T05:34:06.045Z,101977.69
2023-01-28T05:36:32.592Z,101979.50
2023-01-28T05:39:03.949Z,101987.34
2023-01-28T05:41:30.524Z,101997.81
2023-01-28T05:44:01.007Z,101991.59
2023-01-28T05:46:35.659Z,101997.47
2023-01-28T05:49:12.287Z,102004.56
2023-01-28T05:52:07.978Z,102006.38
2023-01-28T05:54:34.710Z,102017.75
2023-01-28T05:57:01.358Z,102002.47
2023-01-28T05:59:29.127Z,102005.38
2023-01-28T06:01:57.773Z,102007.28
2023-01-28T06:04:24.463Z,102001.59
2023-01-28T06:06:51.981Z,101994.34
2023-01-28T06:09:18.681Z,102002.31
2023-01-28T06:11:46.197Z,102000.31
2023-01-28T06:14:13.852Z,102010.19
2023-01-28T06:16:59.102Z,101998.22
2023-01-28T06:19:32.443Z,102004.44
2023-01-28T06:21:58.964Z,101997.16
2023-01-28T06:24:25.867Z,102000.63
2023-01-28T06:26:52.500Z,102002.56
2023-01-28T06:29:19.056Z,102006.91
2023-01-28T06:31:45.638Z,102000.59
2023-01-28T06:34:13.136Z,102004.03
2023-01-28T06:36:39.652Z,102001.78
2023-01-28T06:39:06.240Z,101995.28
2023-01-28T06:41:32.873Z,102000.81
2023-01-28T06:43:59.435Z,102001.31
2023-01-28T06:46:25.983Z,102000.56
2023-01-28T06:48:52.672Z,102007.19
2023-01-28T06:51:19.412Z,102008.28
2023-01-28T06:53:46.243Z,102005.59
2023-01-28T06:56:12.846Z,101998.97
2023-01-28T06:58:39.451Z,101994.53
2023-01-28T07:01:06.834Z,102002.59
2023-01-28T07:03:33.362Z,101996.66
2023-01-28T07:05:59.871Z,102002.91
2023-01-28T07:08:26.431Z,101998.41
2023-01-28T07:10:52.952Z,102003.59
2023-01-28T07:13:19.563Z,102006.22
2023-01-28T07:15:46.108Z,102010.31
2023-01-28T07:18:12.660Z,102008.84
2023-01-28T07:20:39.212Z,102014.56
2023-01-28T07:23:05.824Z,102016.72
2023-01-28T07:25:32.493Z,102017.44
2023-01-28T07:27:59.126Z,102014.69
2023-01-28T07:30:25.918Z,102008.09
2023-01-28T07:32:57.128Z,101998.75
2023-01-28T07:35:24.939Z,102013.34
2023-01-28T07:37:56.428Z,102011.41
2023-01-28T07:40:24.375Z,102013.41
2023-01-28T07:42:51.162Z,102018.06
2023-01-28T07:45:22.568Z,102022.88
2023-01-28T07:48:09.905Z,102027.00
2023-01-28T07:50:37.993Z,102032.78
2023-01-28T07:53:10.600Z,102040.28
2023-01-28T07:55:38.452Z,102041.25
2023-01-28T07:58:07.472Z,102035.53
2023-01-28T08:00:36.247Z,102037.41
2023-01-28T08:03:12.340Z,102041.63
2023-01-28T08:05:44.298Z,102043.28
2023-01-28T08:08:11.919Z,102031.41
2023-01-28T08:10:39.637Z,102041.22
2023-01-28T08:13:06.759Z,102040.84
2023-01-28T08:15:35.163Z,102050.34
2023-01-28T08:18:03.367Z,102053.88
2023-01-28T08:20:30.604Z,102053.72
2023-01-28T08:23:18.695Z,102052.56
2023-01-28T08:25:46.686Z,102058.09
2023-01-28T08:28:15.377Z,102059.97
2023-01-28T08:30:42.010Z,102080.66
2023-01-28T08:33:10.767Z,102073.66
2023-01-28T08:35:37.498Z,102075.03
2023-01-28T08:38:04.859Z,102097.16
2023-01-28T08:40:32.662Z,102108.38
2023-01-28T08:42:59.195Z,102106.22
2023-01-28T08:45:28.034Z,102102.59
2023-01-28T08:47:56.054Z,102112.88
2023-01-28T08:50:24.297Z,102120.09
2023-01-28T08:52:56.847Z,102132.38
2023-01-28T08:55:24.196Z,102127.66
2023-01-28T08:57:50.883Z,102136.53
2023-01-28T09:00:18.285Z,102132.28
2023-01-28T09:02:45.508Z,102130.63
2023-01-28T09:05:12.156Z,102137.47
2023-01-28T09:07:39.152Z,102131.91
2023-01-28T09:10:06.593Z,102131.50
2023-01-28T09:12:33.542Z,102138.06
2023-01-28T09:15:00.185Z,102138.53
2023-01-28T09:17:26.714Z,102146.69
2023-01-28T09:19:53.241Z,102131.16
2023-01-28T09:22:19.795Z,102137.13
2023-01-28T09:24:46.485Z,102150.66
2023-01-28T09:27:13.106Z,102153.94
2023-01-28T09:29:39.744Z,102159.81
2023-01-28T09:32:10.003Z,102155.84
2023-01-28T09:34:37.560Z,102147.72
2023-01-28T09:37:04.051Z,102155.97
2023-01-28T09:39:31.048Z,102150.03
2023-01-28T09:42:16.451Z,102153.88
2023-01-28T09:45:21.468Z,102162.03
2023-01-28T09:47:52.357Z,102164.47
2023-01-28T09:50:32.167Z,102159.59
2023-01-28T09:53:33.253Z,102156.69
2023-01-28T09:56:09.675Z,102167.44
2023-01-28T09:58:36.255Z,102159.22
2023-01-28T10:02:00.697Z,102170.69
2023-01-28T10:04:53.517Z,102165.50
2023-01-28T10:07:49.287Z,102162.91
2023-01-28T10:10:43.351Z,102161.00
2023-01-28T10:13:44.276Z,102140.34
2023-01-28T10:16:22.979Z,102150.91
2023-01-28T10:18:58.334Z,102140.91
2023-01-28T10:21:32.884Z,102135.78
2023-01-28T10:24:03.398Z,102129.47
2023-01-28T10:26:40.226Z,102120.75
2023-01-28T10:29:18.063Z,102124.72
2023-01-28T10:32:13.024Z,102143.22
2023-01-28T10:34:39.564Z,102159.28
2023-01-28T10:37:06.072Z,102155.50
2023-01-28T10:39:33.920Z,102149.13
2023-01-28T10:42:00.512Z,102156.06
2023-01-28T10:44:42.269Z,102151.91
2023-01-28T10:47:19.986Z,102149.84
2023-01-28T10:49:53.191Z,102159.34
2023-01-28T10:52:19.809Z,102160.31
2023-01-28T10:54:46.465Z,102173.44
2023-01-28T10:57:18.309Z,102172.91
2023-01-28T10:59:45.639Z,102173.44
2023-01-28T11:02:26.756Z,102169.09
2023-01-28T11:05:22.389Z,102173.50
2023-01-28T11:07:50.043Z,102181.44
2023-01-28T11:10:43.787Z,102176.38
2023-01-28T11:13:17.706Z,102173.09
2023-01-28T11:15:52.836Z,102175.41
2023-01-28T11:18:30.196Z,102163.28
2023-01-28T11:21:03.451Z,102165.31
2023-01-28T11:23:50.738Z,102164.03
2023-01-28T11:26:24.103Z,102162.91
2023-01-28T11:28:52.497Z,102168.03
2023-01-28T11:31:21.726Z,102163.06
2023-01-28T11:33:57.193Z,102167.63
2023-01-28T11:36:26.305Z,102161.25
2023-01-28T11:38:54.511Z,102157.31
2023-01-28T11:41:32.994Z,102162.16
2023-01-28T11:44:11.324Z,102165.50
2023-01-28T11:46:40.832Z,102153.00
2023-01-28T11:49:10.411Z,102148.41
2023-01-28T11:51:48.076Z,102150.69
2023-01-28T11:54:47.693Z,102138.28
2023-01-28T11:57:34.180Z,102133.16
2023-01-28T12:00:24.406Z,102118.97
2023-01-28T12:02:55.875Z,102114.75
2023-01-28T12:05:34.889Z,102105.75
2023-01-28T12:08:16.513Z,102113.28
2023-01-28T12:11:47.965Z,102099.16
2023-01-28T12:14:36.377Z,102102.28
2023-01-28T12:17:02.882Z,102126.13
2023-01-28T12:19:32.453Z,102113.97
2023-01-28T12:22:23.228Z,102104.69
2023-01-28T12:24:58.878Z,102089.97
2023-01-28T12:27:50.549Z,102080.44
2023-01-28T12:30:29.317Z,102073.72
2023-01-28T12:33:17.716Z,102051.94
2023-01-28T12:36:02.527Z,102034.38
2023-01-28T12:38:50.706Z,102011.84
2023-01-28T12:41:21.270Z,102017.47
2023-01-28T12:44:00.424Z,102030.78
2023-01-28T12:46:42.245Z,102028.88
2023-01-28T12:49:25.560Z,102014.44
2023-01-28T12:52:01.223Z,102017.22
2023-01-28T12:54:49.521Z,102024.97
2023-01-28T12:57:24.642Z,102052.13
2023-01-28T13:00:17.137Z,102050.41
2023-01-28T13:02:52.143Z,102053.53
2023-01-28T13:05:22.771Z,102050.22
2023-01-28T13:08:01.096Z,102029.56
2023-01-28T13:10:42.892Z,102030.78
2023-01-28T13:13:20.136Z,102041.75
2023-01-28T13:15:47.213Z,102032.38
2023-01-28T13:18:33.215Z,102032.03
2023-01-28T13:21:02.149Z,102022.91
2023-01-28T13:23:32.116Z,102046.56
2023-01-28T13:26:11.182Z,102057.72
2023-01-28T13:28:37.928Z,102051.06
2023-01-28T13:31:21.947Z,102047.75
2023-01-28T13:34:00.591Z,102054.75
2023-01-28T13:36:34.365Z,102045.56
2023-01-28T13:39:06.891Z,102053.88
2023-01-28T13:41:42.356Z,102049.69
2023-01-28T13:44:30.328Z,102060.59
2023-01-28T13:47:05.317Z,102061.53
2023-01-28T13:49:42.346Z,102070.56
2023-01-28T13:52:12.019Z,102063.47
2023-01-28T13:54:43.991Z,102063.00
2023-01-28T13:57:16.687Z,102071.84
2023-01-28T14:00:11.386Z,102063.56
2023-01-28T14:03:16.151Z,102051.84
2023-01-28T14:06:11.198Z,102042.88
2023-01-28T14:09:15.861Z,102040.81
2023-01-28T14:11:54.594Z,102046.69
2023-01-28T14:14:33.842Z,102027.63
2023-01-28T14:17:17.357Z,102007.16
2023-01-28T14:19:46.096Z,102017.50
2023-01-28T14:22:21.175Z,102017.19
2023-01-28T14:24:48.433Z,101999.19
2023-01-28T14:27:38.854Z,102008.50
2023-01-28T14:30:15.973Z,102004.00
2023-01-28T14:32:52.211Z,101993.72
2023-01-28T14:35:27.122Z,101990.31
2023-01-28T14:37:54.852Z,101999.41
2023-01-28T14:40:21.847Z,101987.47
2023-01-28T14:42:53.038Z,101983.94
2023-01-28T14:45:51.316Z,101997.53
2023-01-28T14:48:38.325Z,102008.25
2023-01-28T14:51:34.082Z,102015.72
2023-01-28T14:54:37.976Z,102010.94
2023-01-28T14:57:22.908Z,102009.78
2023-01-28T14:59:55.318Z,102014.09
2023-01-28T15:02:25.235Z,102019.63
2023-01-28T15:04:53.382Z,102031.16
2023-01-28T15:07:22.223Z,102043.88
2023-01-28T15:10:00.698Z,102034.94
2023-01-28T15:12:29.213Z,102037.81
2023-01-28T15:14:55.958Z,102035.28
2023-01-28T15:17:28.009Z,102046.13
2023-01-28T15:19:57.525Z,102061.09
2023-01-28T15:22:27.686Z,102063.34
2023-01-28T15:24:55.878Z,102065.59
2023-01-28T15:27:31.113Z,102068.66
2023-01-28T15:29:59.804Z,102056.97
2023-01-28T15:32:29.570Z,102056.44
2023-01-28T15:34:56.556Z,102062.13
2023-01-28T15:37:23.154Z,102067.63
2023-01-28T15:40:00.699Z,102066.91
2023-01-28T15:42:29.335Z,102071.00
2023-01-28T15:44:59.493Z,102065.47
2023-01-28T15:47:33.536Z,102064.53
2023-01-28T15:50:04.531Z,102064.06
2023-01-28T15:52:40.831Z,102060.97
2023-01-28T15:55:30.632Z,102070.25
2023-01-28T15:57:57.269Z,102061.78
2023-01-28T16:00:25.424Z,102075.72
2023-01-28T16:02:55.041Z,102072.78
2023-01-28T16:05:26.114Z,102093.88
2023-01-28T16:07:53.359Z,102092.88
2023-01-28T16:10:27.065Z,102092.41
2023-01-28T16:13:02.140Z,102090.25
2023-01-28T16:15:28.862Z,102094.16
2023-01-28T16:17:55.695Z,102099.50
2023-01-28T16:20:27.623Z,102103.81
2023-01-28T16:22:57.842Z,102112.94
2023-01-28T16:25:33.865Z,102115.63
2023-01-28T16:28:03.122Z,102119.31
2023-01-28T16:30:30.171Z,102123.03
2023-01-28T16:32:56.943Z,102120.97
2023-01-28T16:35:56.427Z,102114.09
2023-01-28T16:38:19.245Z,102118.31
2023-01-28T16:40:47.100Z,102123.66
2023-01-28T16:43:15.528Z,102113.66
2023-01-28T16:45:43.035Z,102108.09
2023-01-28T16:48:09.695Z,102098.56
2023-01-28T16:50:40.008Z,102099.22
2023-01-28T16:53:17.324Z,102114.13
2023-01-28T16:55:44.037Z,102106.91
2023-01-28T16:58:10.865Z,102098.09
2023-01-28T17:00:37.568Z,102081.66
2023-01-28T17:03:05.569Z,102087.13
2023-01-28T17:05:32.136Z,102094.47
2023-01-28T17:07:59.232Z,102092.22
2023-01-28T17:10:26.048Z,102092.00
2023-01-28T17:12:52.586Z,102093.44
2023-01-28T17:15:19.602Z,102078.59
2023-01-28T17:17:50.598Z,102074.75
2023-01-28T17:20:17.439Z,102073.91
2023-01-28T17:22:44.325Z,102069.66
2023-01-28T17:25:11.561Z,102076.44
2023-01-28T17:27:38.241Z,102084.66
2023-01-28T17:30:05.726Z,102087.94
2023-01-28T17:32:32.875Z,102095.13
2023-01-28T17:34:59.498Z,102091.44
2023-01-28T17:37:26.005Z,102107.50
2023-01-28T17:39:52.664Z,102106.00
2023-01-28T17:42:19.173Z,102117.47
2023-01-28T17:44:45.727Z,102124.91
2023-01-28T17:47:12.291Z,102122.28
2023-01-28T17:49:38.886Z,102123.84
2023-01-28T17:52:05.403Z,102132.03
2023-01-28T17:54:32.175Z,102139.03
2023-01-28T17:56:58.811Z,102137.03
2023-01-28T17:59:25.879Z,102133.44
2023-01-28T18:01:54.510Z,102138.19
2023-01-28T18:04:21.276Z,102139.66
2023-01-28T18:06:49.196Z,102130.63
2023-01-28T18:09:16.308Z,102130.44
2023-01-28T18:11:51.485Z,102138.97
2023-01-28T18:14:19.169Z,102134.97
2023-01-28T18:16:45.907Z,102139.16
2023-01-28T18:19:12.485Z,102133.25
2023-01-28T18:21:56.932Z,102130.69
2023-01-28T18:24:28.851Z,102125.78
2023-01-28T18:27:00.433Z,102126.00
2023-01-28T18:29:29.566Z,102125.81
2023-01-28T18:31:57.855Z,102145.50
2023-01-28T18:34:26.711Z,102146.41
2023-01-28T18:36:53.602Z,102141.72
2023-01-28T18:39:21.275Z,102154.19
2023-01-28T18:41:48.090Z,102168.03
2023-01-28T18:44:15.358Z,102170.88
2023-01-28T18:46:42.000Z,102173.44
2023-01-28T18:49:08.661Z,102170.44
2023-01-28T18:51:35.269Z,102153.56
2023-01-28T18:54:04.286Z,102159.28
2023-01-28T18:56:32.171Z,102165.66
2023-01-28T18:59:04.958Z,102163.63
2023-01-28T19:01:33.762Z,102177.81
2023-01-28T19:04:01.269Z,102158.50
2023-01-28T19:06:29.980Z,102166.56
2023-01-28T19:08:58.722Z,102167.38
2023-01-28T19:11:27.833Z,102176.75
2023-01-28T19:13:54.712Z,102160.66
2023-01-28T19:16:21.958Z,102155.63
2023-01-28T19:18:59.209Z,102157.50
2023-01-28T19:21:28.165Z,102164.63
2023-01-28T19:24:03.567Z,102159.81
2023-01-28T19:26:31.841Z,102157.44
2023-01-28T19:28:58.633Z,102150.13
2023-01-28T19:31:26.370Z,102144.91
2023-01-28T19:33:56.112Z,102155.84
2023-01-28T19:36:25.888Z,102157.03
2023-01-28T19:38:56.335Z,102156.56
2023-01-28T19:41:23.110Z,102161.72
2023-01-28T19:43:49.989Z,102169.69
2023-01-28T19:46:17.763Z,102170.53
2023-01-28T19:48:45.387Z,102176.94
2023-01-28T19:51:13.257Z,102179.13
2023-01-28T19:53:41.842Z,102176.91
2023-01-28T19:56:15.878Z,102176.03
2023-01-28T19:58:43.723Z,102177.31
2023-01-28T20:01:17.288Z,102175.81
2023-01-28T20:03:45.763Z,102181.38
2023-01-28T20:06:15.882Z,102176.97
2023-01-28T20:08:43.496Z,102174.13
2023-01-28T20:11:15.378Z,102168.50
2023-01-28T20:13:44.622Z,102163.81
2023-01-28T20:16:19.074Z,102170.28
2023-01-28T20:18:57.507Z,102168.38
2023-01-28T20:21:24.997Z,102152.84
2023-01-28T20:23:53.695Z,102156.84
2023-01-28T20:26:23.621Z,102154.00
2023-01-28T20:28:51.095Z,102154.94
2023-01-28T20:31:19.641Z,102150.41
2023-01-28T20:33:46.673Z,102154.88
2023-01-28T20:36:14.506Z,102149.09
2023-01-28T20:38:43.914Z,102141.06
2023-01-28T20:41:16.744Z,102139.38
2023-01-28T20:43:45.366Z,102139.44
2023-01-28T20:46:14.980Z,102134.09
2023-01-28T20:48:41.925Z,102121.25
2023-01-28T20:51:20.539Z,102123.97
2023-01-28T20:53:47.989Z,102111.06
2023-01-28T20:56:19.191Z,102116.66
2023-01-28T20:58:48.043Z,102107.22
2023-01-28T21:01:19.445Z,102115.72
2023-01-28T21:03:46.997Z,102116.63
2023-01-28T21:06:13.934Z,102114.16
2023-01-28T21:08:41.477Z,102114.78
2023-01-28T21:11:08.664Z,102105.09
2023-01-28T21:13:35.573Z,102107.19
2023-01-28T21:16:02.230Z,102109.97
2023-01-28T21:18:29.454Z,102111.94
2023-01-28T21:21:01.580Z,102108.56
2023-01-28T21:23:28.138Z,102104.66
2023-01-28T21:25:54.644Z,102107.50
2023-01-28T21:28:21.203Z,102110.03
2023-01-28T21:30:47.795Z,102101.34
2023-01-28T21:33:14.419Z,102108.59
2023-01-28T21:35:43.409Z,102114.44
2023-01-28T21:38:10.805Z,102119.28
2023-01-28T21:40:37.604Z,102111.34
2023-01-28T21:43:04.513Z,102115.34
2023-01-28T21:45:31.134Z,102113.78
2023-01-28T21:47:57.912Z,102127.09
2023-01-28T21:50:24.694Z,102124.84
2023-01-28T21:52:51.653Z,102120.97
2023-01-28T21:55:18.578Z,102130.44
2023-01-28T21:57:45.299Z,102138.00
2023-01-28T22:00:12.991Z,102139.72
2023-01-28T22:02:40.175Z,102131.75
2023-01-28T22:05:07.360Z,102144.84
2023-01-28T22:07:33.984Z,102126.41
2023-01-28T22:10:00.644Z,102128.81
2023-01-28T22:12:28.032Z,102138.28
2023-01-28T22:14:54.892Z,102140.44
2023-01-28T22:17:21.701Z,102137.22
2023-01-28T22:19:48.324Z,102144.59
2023-01-28T22:22:16.155Z,102139.50
2023-01-28T22:24:42.842Z,102140.03
2023-01-28T22:27:09.707Z,102144.53
2023-01-28T22:29:36.250Z,102145.13
2023-01-28T22:32:04.655Z,102135.56
2023-01-28T22:34:31.542Z,102135.56
2023-01-28T22:36:58.214Z,102139.59
2023-01-28T22:39:24.824Z,102143.75
2023-01-28T22:41:51.403Z,102141.75
2023-01-28T22:44:19.781Z,102140.19
2023-01-28T22:46:47.144Z,102130.47
2023-01-28T22:49:14.870Z,102128.63
2023-01-28T22:51:41.812Z,102130.41
2023-01-28T22:54:10.777Z,102128.34
2023-01-28T22:56:38.197Z,102117.88
2023-01-28T22:59:04.867Z,102114.59
2023-01-28T23:01:32.324Z,102110.28
2023-01-28T23:03:58.989Z,102113.06
2023-01-28T23:06:27.931Z,102108.22
2023-01-28T23:08:56.167Z,102093.03
2023-01-28T23:11:27.061Z,102091.78
2023-01-28T23:14:15.289Z,102090.16
2023-01-28T23:17:00.728Z,102097.09
2023-01-28T23:19:46.201Z,102105.16
2023-01-28T23:22:40.233Z,102111.53
2023-01-28T23:25:07.239Z,102112.97
2023-01-28T23:27:34.537Z,102108.69
2023-01-28T23:30:01.201Z,102099.47
2023-01-28T23:32:28.156Z,102107.22
2023-01-28T23:34:54.806Z,102099.06
2023-01-28T23:37:21.388Z,102096.59
2023-01-28T23:39:47.951Z,102091.13
2023-01-28T23:42:29.499Z,102080.63
2023-01-28T23:44:56.073Z,102079.88
2023-01-28T23:47:22.839Z,102068.91
2023-01-28T23:49:49.479Z,102072.78
2023-01-28T23:52:16.035Z,102069.56
2023-01-28T23:54:42.673Z,102076.66
2023-01-28T23:57:09.347Z,102080.13
2023-01-28T23:59:36.556Z,102076.97
